sensor_id;sensor_type;location;lat;lon;timestamp;temperature;humidity
2030;DHT22;1020;48.854;8.830;2022-08-21T00:01:22;16.30;1.00
2030;DHT22;1020;48.854;8.830;2022-08-21T00:03:51;16.30;1.00
2030;DHT22;1020;48.854;8.830;2022-08-21T00:06:19;16.30;1.00
2030;DHT22;1020;48.854;8.830;2022-08-21T00:08:45;16.30;1.00
2030;DHT22;1020;48.854;8.830;2022-08-21T00:11:13;16.30;1.00
2030;DHT22;1020;48.854;8.830;2022-08-21T00:13:40;16.30;1.00
2030;DHT22;1020;48.854;8.830;2022-08-21T00:16:07;16.30;1.00
2030;DHT22;1020;48.854;8.830;2022-08-21T00:18:34;16.30;1.00
2030;DHT22;1020;48.854;8.830;2022-08-21T00:21:03;16.20;1.00
2030;DHT22;1020;48.854;8.830;2022-08-21T00:23:32;16.10;1.00
2030;DHT22;1020;48.854;8.830;2022-08-21T00:25:59;16.10;11.70
2030;DHT22;1020;48.854;8.830;2022-08-21T00:28:25;16.10;21.10
2030;DHT22;1020;48.854;8.830;2022-08-21T00:30:52;16.10;13.90
2030;DHT22;1020;48.854;8.830;2022-08-21T00:33:19;16.10;12.10
2030;DHT22;1020;48.854;8.830;2022-08-21T00:35:46;16.00;14.50
2030;DHT22;1020;48.854;8.830;2022-08-21T00:38:14;16.00;21.50
2030;DHT22;1020;48.854;8.830;2022-08-21T00:40:44;15.90;36.40
2030;DHT22;1020;48.854;8.830;2022-08-21T00:43:13;15.80;59.60
2030;DHT22;1020;48.854;8.830;2022-08-21T00:45:41;15.80;81.60
2030;DHT22;1020;48.854;8.830;2022-08-21T00:48:08;15.80;87.60
2030;DHT22;1020;48.854;8.830;2022-08-21T00:50:40;15.70;99.90
2030;DHT22;1020;48.854;8.830;2022-08-21T00:53:08;15.70;99.90
2030;DHT22;1020;48.854;8.830;2022-08-21T00:55:38;15.60;99.90
2030;DHT22;1020;48.854;8.830;2022-08-21T00:58:06;15.60;99.90
2030;DHT22;1020;48.854;8.830;2022-08-21T01:00:36;15.60;99.90
2030;DHT22;1020;48.854;8.830;2022-08-21T01:03:08;15.60;99.90
2030;DHT22;1020;48.854;8.830;2022-08-21T01:05:35;15.50;99.90
2030;DHT22;1020;48.854;8.830;2022-08-21T01:08:03;15.50;99.90
2030;DHT22;1020;48.854;8.830;2022-08-21T01:10:30;15.50;99.90
2030;DHT22;1020;48.854;8.830;2022-08-21T01:12:59;15.50;99.90
2030;DHT22;1020;48.854;8.830;2022-08-21T01:15:29;15.50;99.90
2030;DHT22;1020;48.854;8.830;2022-08-21T01:17:57;15.40;99.90
2030;DHT22;1020;48.854;8.830;2022-08-21T01:20:24;15.40;99.90
2030;DHT22;1020;48.854;8.830;2022-08-21T01:22:52;15.30;99.90
2030;DHT22;1020;48.854;8.830;2022-08-21T01:25:19;15.40;99.90
2030;DHT22;1020;48.854;8.830;2022-08-21T01:27:47;15.30;1.00
2030;DHT22;1020;48.854;8.830;2022-08-21T01:30:17;15.30;1.00
2030;DHT22;1020;48.854;8.830;2022-08-21T01:32:44;15.30;1.00
2030;DHT22;1020;48.854;8.830;2022-08-21T01:35:15;15.20;1.00
2030;DHT22;1020;48.854;8.830;2022-08-21T01:37:43;15.10;99.90
2030;DHT22;1020;48.854;8.830;2022-08-21T01:40:14;15.10;99.90
2030;DHT22;1020;48.854;8.830;2022-08-21T01:42:42;15.00;99.90
2030;DHT22;1020;48.854;8.830;2022-08-21T01:45:10;15.00;1.00
2030;DHT22;1020;48.854;8.830;2022-08-21T01:47:37;15.00;1.00
2030;DHT22;1020;48.854;8.830;2022-08-21T01:50:08;14.90;1.00
2030;DHT22;1020;48.854;8.830;2022-08-21T01:52:35;14.90;1.00
2030;DHT22;1020;48.854;8.830;2022-08-21T01:55:03;14.80;55.00
2030;DHT22;1020;48.854;8.830;2022-08-21T01:57:32;14.80;22.30
2030;DHT22;1020;48.854;8.830;2022-08-21T02:00:00;14.80;1.00
2030;DHT22;1020;48.854;8.830;2022-08-21T02:02:26;14.80;1.00
2030;DHT22;1020;48.854;8.830;2022-08-21T02:04:53;14.80;1.00
2030;DHT22;1020;48.854;8.830;2022-08-21T02:07:20;14.80;99.90
2030;DHT22;1020;48.854;8.830;2022-08-21T02:09:46;14.70;99.90
2030;DHT22;1020;48.854;8.830;2022-08-21T02:12:13;14.70;99.90
2030;DHT22;1020;48.854;8.830;2022-08-21T02:14:42;14.70;99.90
2030;DHT22;1020;48.854;8.830;2022-08-21T02:17:08;14.70;99.90
2030;DHT22;1020;48.854;8.830;2022-08-21T02:19:35;14.70;99.90
2030;DHT22;1020;48.854;8.830;2022-08-21T02:22:03;14.70;99.90
2030;DHT22;1020;48.854;8.830;2022-08-21T02:24:30;14.70;99.90
2030;DHT22;1020;48.854;8.830;2022-08-21T02:26:57;14.70;99.90
2030;DHT22;1020;48.854;8.830;2022-08-21T02:29:24;14.60;99.90
2030;DHT22;1020;48.854;8.830;2022-08-21T02:31:52;14.60;99.90
2030;DHT22;1020;48.854;8.830;2022-08-21T02:34:19;14.50;1.00
2030;DHT22;1020;48.854;8.830;2022-08-21T02:36:46;14.50;1.00
2030;DHT22;1020;48.854;8.830;2022-08-21T02:39:13;14.50;1.00
2030;DHT22;1020;48.854;8.830;2022-08-21T02:41:40;14.50;20.80
2030;DHT22;1020;48.854;8.830;2022-08-21T02:44:07;14.50;1.00
2030;DHT22;1020;48.854;8.830;2022-08-21T02:46:33;14.50;1.00
2030;DHT22;1020;48.854;8.830;2022-08-21T02:49:02;14.40;1.00
2030;DHT22;1020;48.854;8.830;2022-08-21T02:51:29;14.40;1.00
2030;DHT22;1020;48.854;8.830;2022-08-21T02:53:56;14.40;1.00
2030;DHT22;1020;48.854;8.830;2022-08-21T02:56:23;14.40;1.00
2030;DHT22;1020;48.854;8.830;2022-08-21T02:58:51;14.30;1.00
2030;DHT22;1020;48.854;8.830;2022-08-21T03:01:18;14.30;96.90
2030;DHT22;1020;48.854;8.830;2022-08-21T03:03:46;14.20;99.90
2030;DHT22;1020;48.854;8.830;2022-08-21T03:06:19;14.10;1.00
2030;DHT22;1020;48.854;8.830;2022-08-21T03:08:46;14.10;1.00
2030;DHT22;1020;48.854;8.830;2022-08-21T03:11:13;14.00;99.90
2030;DHT22;1020;48.854;8.830;2022-08-21T03:13:40;13.90;1.00
2030;DHT22;1020;48.854;8.830;2022-08-21T03:16:07;13.90;1.00
2030;DHT22;1020;48.854;8.830;2022-08-21T03:18:34;13.90;1.00
2030;DHT22;1020;48.854;8.830;2022-08-21T03:21:02;13.80;99.90
2030;DHT22;1020;48.854;8.830;2022-08-21T03:23:30;13.80;99.90
2030;DHT22;1020;48.854;8.830;2022-08-21T03:25:57;13.80;99.90
2030;DHT22;1020;48.854;8.830;2022-08-21T03:28:24;13.80;99.90
2030;DHT22;1020;48.854;8.830;2022-08-21T03:30:52;13.70;99.90
2030;DHT22;1020;48.854;8.830;2022-08-21T03:33:19;13.70;99.90
2030;DHT22;1020;48.854;8.830;2022-08-21T03:35:48;13.80;99.90
2030;DHT22;1020;48.854;8.830;2022-08-21T03:38:18;13.80;99.90
2030;DHT22;1020;48.854;8.830;2022-08-21T03:40:46;13.70;99.90
2030;DHT22;1020;48.854;8.830;2022-08-21T03:43:13;13.70;99.90
2030;DHT22;1020;48.854;8.830;2022-08-21T03:45:40;13.70;99.90
2030;DHT22;1020;48.854;8.830;2022-08-21T03:48:08;13.60;99.90
2030;DHT22;1020;48.854;8.830;2022-08-21T03:50:38;13.60;99.90
2030;DHT22;1020;48.854;8.830;2022-08-21T03:53:05;13.60;99.90
2030;DHT22;1020;48.854;8.830;2022-08-21T03:55:32;13.60;1.00
2030;DHT22;1020;48.854;8.830;2022-08-21T03:58:00;13.60;1.00
2030;DHT22;1020;48.854;8.830;2022-08-21T04:00:26;13.50;1.00
2030;DHT22;1020;48.854;8.830;2022-08-21T04:02:53;13.50;1.00
2030;DHT22;1020;48.854;8.830;2022-08-21T04:05:20;13.50;1.00
2030;DHT22;1020;48.854;8.830;2022-08-21T04:07:55;15.10;1.00
2030;DHT22;1020;48.854;8.830;2022-08-21T04:10:22;13.40;1.00
2030;DHT22;1020;48.854;8.830;2022-08-21T04:12:50;13.40;1.00
2030;DHT22;1020;48.854;8.830;2022-08-21T04:15:19;13.50;1.00
2030;DHT22;1020;48.854;8.830;2022-08-21T04:17:46;13.50;1.00
2030;DHT22;1020;48.854;8.830;2022-08-21T04:20:13;13.40;1.00
2030;DHT22;1020;48.854;8.830;2022-08-21T04:22:40;13.40;1.00
2030;DHT22;1020;48.854;8.830;2022-08-21T04:25:08;13.30;1.00
2030;DHT22;1020;48.854;8.830;2022-08-21T04:27:34;13.30;1.00
2030;DHT22;1020;48.854;8.830;2022-08-21T04:30:02;13.30;1.00
2030;DHT22;1020;48.854;8.830;2022-08-21T04:32:31;13.30;1.00
2030;DHT22;1020;48.854;8.830;2022-08-21T04:35:01;13.20;1.00
2030;DHT22;1020;48.854;8.830;2022-08-21T04:37:29;13.20;1.00
2030;DHT22;1020;48.854;8.830;2022-08-21T04:39:56;11.30;1.00
2030;DHT22;1020;48.854;8.830;2022-08-21T04:42:24;13.20;1.00
2030;DHT22;1020;48.854;8.830;2022-08-21T04:44:51;13.20;1.00
2030;DHT22;1020;48.854;8.830;2022-08-21T04:47:18;13.30;1.00
2030;DHT22;1020;48.854;8.830;2022-08-21T04:49:46;13.30;1.00
2030;DHT22;1020;48.854;8.830;2022-08-21T04:52:15;13.30;1.00
2030;DHT22;1020;48.854;8.830;2022-08-21T04:54:44;13.30;1.00
2030;DHT22;1020;48.854;8.830;2022-08-21T04:57:13;13.30;1.00
2030;DHT22;1020;48.854;8.830;2022-08-21T04:59:44;13.30;1.00
2030;DHT22;1020;48.854;8.830;2022-08-21T05:02:12;13.40;1.00
2030;DHT22;1020;48.854;8.830;2022-08-21T05:04:43;13.40;1.00
2030;DHT22;1020;48.854;8.830;2022-08-21T05:07:16;13.50;1.00
2030;DHT22;1020;48.854;8.830;2022-08-21T05:09:43;13.50;1.00
2030;DHT22;1020;48.854;8.830;2022-08-21T05:12:11;13.50;1.00
2030;DHT22;1020;48.854;8.830;2022-08-21T05:14:38;13.50;1.00
2030;DHT22;1020;48.854;8.830;2022-08-21T05:17:05;13.50;1.00
2030;DHT22;1020;48.854;8.830;2022-08-21T05:19:32;13.40;1.00
2030;DHT22;1020;48.854;8.830;2022-08-21T05:21:58;13.40;1.00
2030;DHT22;1020;48.854;8.830;2022-08-21T05:24:27;13.30;1.00
2030;DHT22;1020;48.854;8.830;2022-08-21T05:26:54;13.40;1.00
2030;DHT22;1020;48.854;8.830;2022-08-21T05:29:21;13.40;1.00
2030;DHT22;1020;48.854;8.830;2022-08-21T05:31:48;13.40;1.00
2030;DHT22;1020;48.854;8.830;2022-08-21T05:34:19;13.50;1.00
2030;DHT22;1020;48.854;8.830;2022-08-21T05:36:46;13.50;1.00
2030;DHT22;1020;48.854;8.830;2022-08-21T05:39:13;13.60;1.00
2030;DHT22;1020;48.854;8.830;2022-08-21T05:41:42;13.60;1.00
2030;DHT22;1020;48.854;8.830;2022-08-21T05:44:08;13.70;1.00
2030;DHT22;1020;48.854;8.830;2022-08-21T05:46:35;13.70;1.00
2030;DHT22;1020;48.854;8.830;2022-08-21T05:49:02;13.80;1.00
2030;DHT22;1020;48.854;8.830;2022-08-21T05:51:29;13.90;99.90
2030;DHT22;1020;48.854;8.830;2022-08-21T05:53:56;14.00;99.90
2030;DHT22;1020;48.854;8.830;2022-08-21T05:56:23;14.10;99.90
2030;DHT22;1020;48.854;8.830;2022-08-21T05:58:51;14.20;99.90
2030;DHT22;1020;48.854;8.830;2022-08-21T06:01:18;14.40;99.90
2030;DHT22;1020;48.854;8.830;2022-08-21T06:03:45;14.50;1.00
2030;DHT22;1020;48.854;8.830;2022-08-21T06:06:12;14.60;99.90
2030;DHT22;1020;48.854;8.830;2022-08-21T06:08:38;14.70;72.50
2030;DHT22;1020;48.854;8.830;2022-08-21T06:11:06;14.80;1.00
2030;DHT22;1020;48.854;8.830;2022-08-21T06:13:33;14.90;99.90
2030;DHT22;1020;48.854;8.830;2022-08-21T06:16:04;15.00;99.90
2030;DHT22;1020;48.854;8.830;2022-08-21T06:18:32;15.10;1.00
2030;DHT22;1020;48.854;8.830;2022-08-21T06:20:59;15.40;99.90
2030;DHT22;1020;48.854;8.830;2022-08-21T06:23:26;15.60;99.90
2030;DHT22;1020;48.854;8.830;2022-08-21T06:25:53;15.80;99.90
2030;DHT22;1020;48.854;8.830;2022-08-21T06:28:20;16.10;99.50
2030;DHT22;1020;48.854;8.830;2022-08-21T06:30:46;16.40;1.00
2030;DHT22;1020;48.854;8.830;2022-08-21T06:33:15;16.60;99.90
2030;DHT22;1020;48.854;8.830;2022-08-21T06:35:41;16.80;5.40
2030;DHT22;1020;48.854;8.830;2022-08-21T06:38:08;17.00;1.00
2030;DHT22;1020;48.854;8.830;2022-08-21T06:40:35;17.20;1.00
2030;DHT22;1020;48.854;8.830;2022-08-21T06:43:07;17.40;99.90
2030;DHT22;1020;48.854;8.830;2022-08-21T06:45:34;17.70;99.90
2030;DHT22;1020;48.854;8.830;2022-08-21T06:48:02;18.00;99.90
2030;DHT22;1020;48.854;8.830;2022-08-21T06:50:30;18.10;99.90
2030;DHT22;1020;48.854;8.830;2022-08-21T06:53:03;18.30;99.90
2030;DHT22;1020;48.854;8.830;2022-08-21T06:55:30;18.60;30.10
2030;DHT22;1020;48.854;8.830;2022-08-21T06:57:57;18.90;1.00
2030;DHT22;1020;48.854;8.830;2022-08-21T07:00:24;19.30;1.00
2030;DHT22;1020;48.854;8.830;2022-08-21T07:02:50;19.60;1.00
2030;DHT22;1020;48.854;8.830;2022-08-21T07:05:17;19.90;1.00
2030;DHT22;1020;48.854;8.830;2022-08-21T07:07:47;20.30;1.00
2030;DHT22;1020;48.854;8.830;2022-08-21T07:10:14;20.50;1.00
2030;DHT22;1020;48.854;8.830;2022-08-21T07:12:41;20.70;1.00
2030;DHT22;1020;48.854;8.830;2022-08-21T07:15:09;21.00;1.00
2030;DHT22;1020;48.854;8.830;2022-08-21T07:17:36;21.70;1.00
2030;DHT22;1020;48.854;8.830;2022-08-21T07:20:04;22.50;1.00
2030;DHT22;1020;48.854;8.830;2022-08-21T07:22:31;22.90;99.90
2030;DHT22;1020;48.854;8.830;2022-08-21T07:24:59;23.80;99.90
2030;DHT22;1020;48.854;8.830;2022-08-21T07:27:26;25.30;99.90
2030;DHT22;1020;48.854;8.830;2022-08-21T07:29:53;27.00;99.90
2030;DHT22;1020;48.854;8.830;2022-08-21T07:32:20;28.40;99.90
2030;DHT22;1020;48.854;8.830;2022-08-21T07:34:46;30.00;99.90
2030;DHT22;1020;48.854;8.830;2022-08-21T07:37:13;31.20;99.90
2030;DHT22;1020;48.854;8.830;2022-08-21T07:39:40;31.90;99.90
2030;DHT22;1020;48.854;8.830;2022-08-21T07:42:08;32.30;99.90
2030;DHT22;1020;48.854;8.830;2022-08-21T07:44:35;30.40;99.90
2030;DHT22;1020;48.854;8.830;2022-08-21T07:47:02;30.20;99.90
2030;DHT22;1020;48.854;8.830;2022-08-21T07:49:29;31.20;99.90
2030;DHT22;1020;48.854;8.830;2022-08-21T07:51:56;31.70;99.90
2030;DHT22;1020;48.854;8.830;2022-08-21T07:54:23;32.90;99.90
2030;DHT22;1020;48.854;8.830;2022-08-21T07:56:50;33.80;99.90
2030;DHT22;1020;48.854;8.830;2022-08-21T07:59:18;34.80;99.90
2030;DHT22;1020;48.854;8.830;2022-08-21T08:01:45;36.30;99.90
2030;DHT22;1020;48.854;8.830;2022-08-21T08:04:12;37.00;99.90
2030;DHT22;1020;48.854;8.830;2022-08-21T08:06:40;37.70;99.90
2030;DHT22;1020;48.854;8.830;2022-08-21T08:09:07;38.30;99.90
2030;DHT22;1020;48.854;8.830;2022-08-21T08:11:33;39.10;99.90
2030;DHT22;1020;48.854;8.830;2022-08-21T08:14:01;38.10;99.90
2030;DHT22;1020;48.854;8.830;2022-08-21T08:16:30;36.50;99.90
2030;DHT22;1020;48.854;8.830;2022-08-21T08:18:57;35.50;99.90
2030;DHT22;1020;48.854;8.830;2022-08-21T08:21:24;33.90;99.90
2030;DHT22;1020;48.854;8.830;2022-08-21T08:23:50;34.20;99.90
2030;DHT22;1020;48.854;8.830;2022-08-21T08:26:17;33.50;99.90
2030;DHT22;1020;48.854;8.830;2022-08-21T08:28:44;34.20;99.90
2030;DHT22;1020;48.854;8.830;2022-08-21T08:31:12;34.30;99.90
2030;DHT22;1020;48.854;8.830;2022-08-21T08:33:40;34.90;99.90
2030;DHT22;1020;48.854;8.830;2022-08-21T08:36:13;33.70;99.90
2030;DHT22;1020;48.854;8.830;2022-08-21T08:38:40;34.30;99.90
2030;DHT22;1020;48.854;8.830;2022-08-21T08:41:11;34.50;99.90
2030;DHT22;1020;48.854;8.830;2022-08-21T08:43:40;33.50;99.90
2030;DHT22;1020;48.854;8.830;2022-08-21T08:46:12;32.90;99.90
2030;DHT22;1020;48.854;8.830;2022-08-21T08:48:47;33.20;99.90
2030;DHT22;1020;48.854;8.830;2022-08-21T08:51:20;32.60;99.90
2030;DHT22;1020;48.854;8.830;2022-08-21T08:53:51;31.60;99.90
2030;DHT22;1020;48.854;8.830;2022-08-21T08:56:22;31.80;99.90
2030;DHT22;1020;48.854;8.830;2022-08-21T08:58:52;33.20;99.90
2030;DHT22;1020;48.854;8.830;2022-08-21T09:01:20;34.10;99.90
2030;DHT22;1020;48.854;8.830;2022-08-21T09:03:49;35.00;99.90
2030;DHT22;1020;48.854;8.830;2022-08-21T09:06:27;35.60;99.90
2030;DHT22;1020;48.854;8.830;2022-08-21T09:09:04;35.60;99.90
2030;DHT22;1020;48.854;8.830;2022-08-21T09:11:43;32.90;99.90
2030;DHT22;1020;48.854;8.830;2022-08-21T09:14:19;32.20;99.90
2030;DHT22;1020;48.854;8.830;2022-08-21T09:16:54;34.10;99.90
2030;DHT22;1020;48.854;8.830;2022-08-21T09:19:32;35.50;99.90
2030;DHT22;1020;48.854;8.830;2022-08-21T09:22:07;35.80;99.90
2030;DHT22;1020;48.854;8.830;2022-08-21T09:24:50;35.10;99.90
2030;DHT22;1020;48.854;8.830;2022-08-21T09:27:19;35.40;99.90
2030;DHT22;1020;48.854;8.830;2022-08-21T09:29:49;35.20;99.90
2030;DHT22;1020;48.854;8.830;2022-08-21T09:32:20;35.70;99.90
2030;DHT22;1020;48.854;8.830;2022-08-21T09:34:59;35.80;99.90
2030;DHT22;1020;48.854;8.830;2022-08-21T09:37:27;36.20;99.90
2030;DHT22;1020;48.854;8.830;2022-08-21T09:39:56;36.80;99.90
2030;DHT22;1020;48.854;8.830;2022-08-21T09:42:25;37.50;99.90
2030;DHT22;1020;48.854;8.830;2022-08-21T09:45:09;37.90;99.90
2030;DHT22;1020;48.854;8.830;2022-08-21T09:47:36;38.10;99.90
2030;DHT22;1020;48.854;8.830;2022-08-21T09:50:13;38.10;99.90
2030;DHT22;1020;48.854;8.830;2022-08-21T09:52:48;38.20;99.90
2030;DHT22;1020;48.854;8.830;2022-08-21T09:55:21;38.90;99.90
2030;DHT22;1020;48.854;8.830;2022-08-21T09:58:07;39.60;99.90
2030;DHT22;1020;48.854;8.830;2022-08-21T10:00:34;39.50;99.90
2030;DHT22;1020;48.854;8.830;2022-08-21T10:03:15;39.40;99.90
2030;DHT22;1020;48.854;8.830;2022-08-21T10:05:54;40.10;99.90
2030;DHT22;1020;48.854;8.830;2022-08-21T10:08:23;40.40;99.90
2030;DHT22;1020;48.854;8.830;2022-08-21T10:10:53;40.50;99.90
2030;DHT22;1020;48.854;8.830;2022-08-21T10:13:28;40.10;99.90
2030;DHT22;1020;48.854;8.830;2022-08-21T10:16:15;40.50;99.90
2030;DHT22;1020;48.854;8.830;2022-08-21T10:19:00;40.60;99.90
2030;DHT22;1020;48.854;8.830;2022-08-21T10:21:34;40.50;99.90
2030;DHT22;1020;48.854;8.830;2022-08-21T10:24:09;40.80;99.90
2030;DHT22;1020;48.854;8.830;2022-08-21T10:26:48;40.70;99.90
2030;DHT22;1020;48.854;8.830;2022-08-21T10:29:31;40.30;99.90
2030;DHT22;1020;48.854;8.830;2022-08-21T10:32:07;40.40;99.90
2030;DHT22;1020;48.854;8.830;2022-08-21T10:34:45;40.40;99.90
2030;DHT22;1020;48.854;8.830;2022-08-21T10:37:24;40.50;99.90
2030;DHT22;1020;48.854;8.830;2022-08-21T10:40:02;39.80;99.90
2030;DHT22;1020;48.854;8.830;2022-08-21T10:42:36;37.40;99.90
2030;DHT22;1020;48.854;8.830;2022-08-21T10:45:14;36.20;99.90
2030;DHT22;1020;48.854;8.830;2022-08-21T10:47:45;34.60;99.90
2030;DHT22;1020;48.854;8.830;2022-08-21T10:50:19;33.90;99.90
2030;DHT22;1020;48.854;8.830;2022-08-21T10:53:15;34.30;99.90
2030;DHT22;1020;48.854;8.830;2022-08-21T10:55:52;34.50;99.90
2030;DHT22;1020;48.854;8.830;2022-08-21T10:58:27;34.20;99.90
2030;DHT22;1020;48.854;8.830;2022-08-21T11:00:58;33.80;99.90
2030;DHT22;1020;48.854;8.830;2022-08-21T11:03:33;33.90;99.90
2030;DHT22;1020;48.854;8.830;2022-08-21T11:06:08;33.60;99.90
2030;DHT22;1020;48.854;8.830;2022-08-21T11:08:39;35.30;99.90
2030;DHT22;1020;48.854;8.830;2022-08-21T11:11:12;36.70;99.90
2030;DHT22;1020;48.854;8.830;2022-08-21T11:13:41;36.20;99.90
2030;DHT22;1020;48.854;8.830;2022-08-21T11:16:16;34.40;99.90
2030;DHT22;1020;48.854;8.830;2022-08-21T11:18:49;34.20;99.90
2030;DHT22;1020;48.854;8.830;2022-08-21T11:21:29;35.40;99.90
2030;DHT22;1020;48.854;8.830;2022-08-21T11:24:03;36.10;99.90
2030;DHT22;1020;48.854;8.830;2022-08-21T11:26:38;35.60;99.90
2030;DHT22;1020;48.854;8.830;2022-08-21T11:29:12;35.40;99.90
2030;DHT22;1020;48.854;8.830;2022-08-21T11:31:51;35.70;99.90
2030;DHT22;1020;48.854;8.830;2022-08-21T11:34:35;36.60;99.90
2030;DHT22;1020;48.854;8.830;2022-08-21T11:37:12;37.00;99.90
2030;DHT22;1020;48.854;8.830;2022-08-21T11:39:52;36.30;99.90
2030;DHT22;1020;48.854;8.830;2022-08-21T11:42:26;36.30;99.90
2030;DHT22;1020;48.854;8.830;2022-08-21T11:45:03;36.50;99.90
2030;DHT22;1020;48.854;8.830;2022-08-21T11:47:46;37.00;99.90
2030;DHT22;1020;48.854;8.830;2022-08-21T11:50:18;38.40;99.90
2030;DHT22;1020;48.854;8.830;2022-08-21T11:52:50;37.90;99.90
2030;DHT22;1020;48.854;8.830;2022-08-21T11:55:25;38.20;99.90
2030;DHT22;1020;48.854;8.830;2022-08-21T11:57:56;37.70;99.90
2030;DHT22;1020;48.854;8.830;2022-08-21T12:00:29;37.90;99.90
2030;DHT22;1020;48.854;8.830;2022-08-21T12:03:05;37.70;99.90
2030;DHT22;1020;48.854;8.830;2022-08-21T12:05:36;37.70;99.90
2030;DHT22;1020;48.854;8.830;2022-08-21T12:08:06;36.20;99.90
2030;DHT22;1020;48.854;8.830;2022-08-21T12:10:40;37.30;99.90
2030;DHT22;1020;48.854;8.830;2022-08-21T12:13:10;38.80;99.90
2030;DHT22;1020;48.854;8.830;2022-08-21T12:15:39;40.20;99.90
2030;DHT22;1020;48.854;8.830;2022-08-21T12:18:20;38.70;99.90
2030;DHT22;1020;48.854;8.830;2022-08-21T12:20:58;36.50;99.90
2030;DHT22;1020;48.854;8.830;2022-08-21T12:23:28;36.00;99.90
2030;DHT22;1020;48.854;8.830;2022-08-21T12:26:13;36.50;99.90
2030;DHT22;1020;48.854;8.830;2022-08-21T12:28:44;36.10;99.90
2030;DHT22;1020;48.854;8.830;2022-08-21T12:31:19;35.40;99.90
2030;DHT22;1020;48.854;8.830;2022-08-21T12:33:52;35.00;99.90
2030;DHT22;1020;48.854;8.830;2022-08-21T12:36:22;34.80;99.90
2030;DHT22;1020;48.854;8.830;2022-08-21T12:38:54;34.00;99.90
2030;DHT22;1020;48.854;8.830;2022-08-21T12:41:27;34.30;99.90
2030;DHT22;1020;48.854;8.830;2022-08-21T12:43:57;35.60;99.90
2030;DHT22;1020;48.854;8.830;2022-08-21T12:46:30;36.80;99.90
2030;DHT22;1020;48.854;8.830;2022-08-21T12:49:02;38.30;99.90
2030;DHT22;1020;48.854;8.830;2022-08-21T12:51:34;39.10;99.90
2030;DHT22;1020;48.854;8.830;2022-08-21T12:54:03;39.90;99.90
2030;DHT22;1020;48.854;8.830;2022-08-21T12:56:34;39.90;99.90
2030;DHT22;1020;48.854;8.830;2022-08-21T12:59:04;40.00;99.90
2030;DHT22;1020;48.854;8.830;2022-08-21T13:01:34;39.10;99.90
2030;DHT22;1020;48.854;8.830;2022-08-21T13:04:06;39.40;99.90
2030;DHT22;1020;48.854;8.830;2022-08-21T13:06:38;39.30;99.90
2030;DHT22;1020;48.854;8.830;2022-08-21T13:09:10;39.30;99.90
2030;DHT22;1020;48.854;8.830;2022-08-21T13:11:39;38.70;99.90
2030;DHT22;1020;48.854;8.830;2022-08-21T13:14:14;37.70;99.90
2030;DHT22;1020;48.854;8.830;2022-08-21T13:16:45;35.70;99.90
2030;DHT22;1020;48.854;8.830;2022-08-21T13:19:16;34.50;99.90
2030;DHT22;1020;48.854;8.830;2022-08-21T13:21:44;33.20;99.90
2030;DHT22;1020;48.854;8.830;2022-08-21T13:24:16;33.50;99.90
2030;DHT22;1020;48.854;8.830;2022-08-21T13:26:44;34.70;99.90
2030;DHT22;1020;48.854;8.830;2022-08-21T13:29:14;34.90;99.90
2030;DHT22;1020;48.854;8.830;2022-08-21T13:31:47;35.10;99.90
2030;DHT22;1020;48.854;8.830;2022-08-21T13:34:15;34.50;99.90
2030;DHT22;1020;48.854;8.830;2022-08-21T13:36:43;34.30;99.90
2030;DHT22;1020;48.854;8.830;2022-08-21T13:39:16;34.10;99.90
2030;DHT22;1020;48.854;8.830;2022-08-21T13:41:48;33.90;99.90
2030;DHT22;1020;48.854;8.830;2022-08-21T13:44:18;34.40;99.90
2030;DHT22;1020;48.854;8.830;2022-08-21T13:46:46;34.30;99.90
2030;DHT22;1020;48.854;8.830;2022-08-21T13:49:15;34.20;99.90
2030;DHT22;1020;48.854;8.830;2022-08-21T13:51:44;34.50;99.90
2030;DHT22;1020;48.854;8.830;2022-08-21T13:54:23;35.40;99.90
2030;DHT22;1020;48.854;8.830;2022-08-21T13:56:53;35.90;99.90
2030;DHT22;1020;48.854;8.830;2022-08-21T13:59:26;35.00;99.90
2030;DHT22;1020;48.854;8.830;2022-08-21T14:01:56;34.80;99.90
2030;DHT22;1020;48.854;8.830;2022-08-21T14:04:31;34.70;99.90
2030;DHT22;1020;48.854;8.830;2022-08-21T14:06:59;34.60;99.90
2030;DHT22;1020;48.854;8.830;2022-08-21T14:09:30;34.40;99.90
2030;DHT22;1020;48.854;8.830;2022-08-21T14:12:02;34.00;99.90
2030;DHT22;1020;48.854;8.830;2022-08-21T14:14:32;34.40;99.90
2030;DHT22;1020;48.854;8.830;2022-08-21T14:17:04;34.40;99.90
2030;DHT22;1020;48.854;8.830;2022-08-21T14:19:38;34.60;99.90
2030;DHT22;1020;48.854;8.830;2022-08-21T14:22:29;34.40;99.90
2030;DHT22;1020;48.854;8.830;2022-08-21T14:25:02;34.30;99.90
2030;DHT22;1020;48.854;8.830;2022-08-21T14:27:32;33.00;99.90
2030;DHT22;1020;48.854;8.830;2022-08-21T14:30:01;33.20;99.90
2030;DHT22;1020;48.854;8.830;2022-08-21T14:32:36;32.70;99.90
2030;DHT22;1020;48.854;8.830;2022-08-21T14:35:04;32.70;99.90
2030;DHT22;1020;48.854;8.830;2022-08-21T14:37:31;33.00;99.90
2030;DHT22;1020;48.854;8.830;2022-08-21T14:39:58;32.90;99.90
2030;DHT22;1020;48.854;8.830;2022-08-21T14:42:25;33.10;99.90
2030;DHT22;1020;48.854;8.830;2022-08-21T14:44:55;33.80;99.90
2030;DHT22;1020;48.854;8.830;2022-08-21T14:47:23;34.20;99.90
2030;DHT22;1020;48.854;8.830;2022-08-21T14:49:50;34.70;99.90
2030;DHT22;1020;48.854;8.830;2022-08-21T14:52:19;34.60;99.90
2030;DHT22;1020;48.854;8.830;2022-08-21T14:54:46;34.90;99.90
2030;DHT22;1020;48.854;8.830;2022-08-21T14:57:12;35.30;99.90
2030;DHT22;1020;48.854;8.830;2022-08-21T14:59:39;35.70;99.90
2030;DHT22;1020;48.854;8.830;2022-08-21T15:02:09;35.60;99.90
2030;DHT22;1020;48.854;8.830;2022-08-21T15:04:35;35.20;99.90
2030;DHT22;1020;48.854;8.830;2022-08-21T15:07:03;35.40;99.90
2030;DHT22;1020;48.854;8.830;2022-08-21T15:09:29;35.50;99.90
2030;DHT22;1020;48.854;8.830;2022-08-21T15:11:58;35.80;99.90
2030;DHT22;1020;48.854;8.830;2022-08-21T15:14:28;36.40;99.90
2030;DHT22;1020;48.854;8.830;2022-08-21T15:16:55;36.40;99.90
2030;DHT22;1020;48.854;8.830;2022-08-21T15:19:23;36.10;99.90
2030;DHT22;1020;48.854;8.830;2022-08-21T15:21:51;35.60;99.90
2030;DHT22;1020;48.854;8.830;2022-08-21T15:24:17;35.20;99.90
2030;DHT22;1020;48.854;8.830;2022-08-21T15:26:45;34.90;99.90
2030;DHT22;1020;48.854;8.830;2022-08-21T15:29:13;34.80;99.90
2030;DHT22;1020;48.854;8.830;2022-08-21T15:31:51;34.10;99.90
2030;DHT22;1020;48.854;8.830;2022-08-21T15:34:19;33.50;99.90
2030;DHT22;1020;48.854;8.830;2022-08-21T15:36:47;33.10;99.90
2030;DHT22;1020;48.854;8.830;2022-08-21T15:39:14;32.50;99.90
2030;DHT22;1020;48.854;8.830;2022-08-21T15:41:40;32.20;99.90
2030;DHT22;1020;48.854;8.830;2022-08-21T15:44:09;32.20;99.90
2030;DHT22;1020;48.854;8.830;2022-08-21T15:46:37;32.00;99.90
2030;DHT22;1020;48.854;8.830;2022-08-21T15:49:04;32.00;99.90
2030;DHT22;1020;48.854;8.830;2022-08-21T15:51:32;31.80;99.90
2030;DHT22;1020;48.854;8.830;2022-08-21T15:54:00;31.90;99.90
2030;DHT22;1020;48.854;8.830;2022-08-21T15:56:32;31.80;99.90
2030;DHT22;1020;48.854;8.830;2022-08-21T15:59:03;31.50;99.90
2030;DHT22;1020;48.854;8.830;2022-08-21T16:01:31;31.70;99.90
2030;DHT22;1020;48.854;8.830;2022-08-21T16:03:58;31.90;99.90
2030;DHT22;1020;48.854;8.830;2022-08-21T16:06:24;32.00;99.90
2030;DHT22;1020;48.854;8.830;2022-08-21T16:08:51;32.10;99.90
2030;DHT22;1020;48.854;8.830;2022-08-21T16:11:19;32.20;99.90
2030;DHT22;1020;48.854;8.830;2022-08-21T16:13:47;32.30;99.90
2030;DHT22;1020;48.854;8.830;2022-08-21T16:16:16;32.40;99.90
2030;DHT22;1020;48.854;8.830;2022-08-21T16:18:45;32.20;99.90
2030;DHT22;1020;48.854;8.830;2022-08-21T16:21:12;31.70;99.90